createdAt,value
2023-03-08T00:00:25.763Z,95796.94
2023-03-08T00:02:53.958Z,95912.41
2023-03-08T00:05:20.513Z,95901.16
2023-03-08T00:07:47.056Z,95891.50
2023-03-08T00:10:14.514Z,95879.75
2023-03-08T00:12:41.143Z,96001.50
2023-03-08T00:15:07.972Z,96083.75
2023-03-08T00:17:36.663Z,95957.44
2023-03-08T00:20:05.887Z,95853.34
2023-03-08T00:22:39.729Z,95832.72
2023-03-08T00:25:06.726Z,95915.75
2023-03-08T00:27:33.257Z,95986.25
2023-03-08T00:29:59.874Z,95995.56
2023-03-08T00:32:26.892Z,96023.91
2023-03-08T00:34:53.789Z,95994.69
2023-03-08T00:37:20.661Z,95853.47
2023-03-08T00:39:53.487Z,95828.69
2023-03-08T00:42:23.538Z,95992.13
2023-03-08T00:44:50.233Z,95849.72
2023-03-08T00:47:17.037Z,95934.34
2023-03-08T00:49:44.131Z,96011.66
2023-03-08T00:52:10.849Z,95700.88
2023-03-08T00:54:37.687Z,96012.50
2023-03-08T00:57:04.328Z,95782.19
2023-03-08T00:59:30.834Z,95923.41
2023-03-08T01:01:57.444Z,95961.88
2023-03-08T01:04:24.083Z,96001.47
2023-03-08T01:06:50.631Z,96020.31
2023-03-08T01:09:17.142Z,95885.75
2023-03-08T01:11:44.315Z,96083.59
2023-03-08T01:14:10.907Z,95997.19
2023-03-08T01:16:37.624Z,96090.50
2023-03-08T01:19:04.378Z,95879.91
2023-03-08T01:21:31.119Z,95913.41
2023-03-08T01:23:57.781Z,95921.03
2023-03-08T01:26:25.583Z,95878.25
2023-03-08T01:28:52.189Z,95912.28
2023-03-08T01:31:20.583Z,95918.34
2023-03-08T01:33:47.363Z,95839.00
2023-03-08T01:36:15.389Z,95799.56
2023-03-08T01:38:42.104Z,95796.16
2023-03-08T01:41:11.426Z,95978.53
2023-03-08T01:43:38.640Z,95830.28
2023-03-08T01:46:26.186Z,95981.94
2023-03-08T01:48:56.715Z,95964.84
2023-03-08T01:51:57.390Z,96059.13
2023-03-08T01:54:30.014Z,95816.88
2023-03-08T01:57:00.134Z,96018.84
2023-03-08T01:59:26.707Z,95800.66
2023-03-08T02:01:53.273Z,95887.00
2023-03-08T02:04:19.838Z,95804.06
2023-03-08T02:06:46.519Z,95755.38
2023-03-08T02:09:13.093Z,95883.69
2023-03-08T02:11:39.814Z,95871.72
2023-03-08T02:14:06.378Z,95956.50
2023-03-08T02:16:32.933Z,95928.97
2023-03-08T02:19:01.318Z,95856.34
2023-03-08T02:21:28.462Z,95948.88
2023-03-08T02:23:55.305Z,95869.25
2023-03-08T02:26:22.050Z,95848.84
2023-03-08T02:28:48.687Z,95737.31
2023-03-08T02:31:15.576Z,95783.75
2023-03-08T02:33:42.160Z,95780.38
2023-03-08T02:36:09.814Z,95827.53
2023-03-08T02:38:36.490Z,95847.22
2023-03-08T02:41:03.063Z,95781.28
2023-03-08T02:43:29.661Z,95697.59
2023-03-08T02:45:56.228Z,95755.75
2023-03-08T02:48:22.819Z,95964.56
2023-03-08T02:50:50.817Z,95736.22
2023-03-08T02:53:17.463Z,95770.34
2023-03-08T02:55:44.013Z,95824.38
2023-03-08T02:58:10.728Z,95824.31
2023-03-08T03:00:37.772Z,95745.66
2023-03-08T03:03:04.478Z,95706.31
2023-03-08T03:05:31.028Z,95836.09
2023-03-08T03:07:58.724Z,95795.16
2023-03-08T03:10:25.570Z,95767.03
2023-03-08T03:12:52.129Z,95951.03
2023-03-08T03:15:18.841Z,95760.28
2023-03-08T03:17:45.454Z,95767.19
2023-03-08T03:20:12.500Z,95724.38
2023-03-08T03:22:39.020Z,95839.84
2023-03-08T03:25:06.103Z,95780.75
2023-03-08T03:27:32.745Z,95906.63
2023-03-08T03:29:59.377Z,95735.50
2023-03-08T03:32:26.008Z,95693.63
2023-03-08T03:34:52.731Z,95829.72
2023-03-08T03:37:19.313Z,95792.91
2023-03-08T03:39:45.864Z,95756.94
2023-03-08T03:42:12.445Z,95743.31
2023-03-08T03:44:39.114Z,95808.88
2023-03-08T03:47:05.992Z,95752.69
2023-03-08T03:49:32.577Z,95921.19
2023-03-08T03:51:59.226Z,95856.91
2023-03-08T03:54:25.852Z,95921.09
2023-03-08T03:56:52.625Z,95886.91
2023-03-08T03:59:19.235Z,95922.09
2023-03-08T04:01:45.795Z,95832.22
2023-03-08T04:04:12.446Z,95751.03
2023-03-08T04:06:39.034Z,95729.50
2023-03-08T04:09:07.889Z,95877.72
2023-03-08T04:11:36.277Z,95904.28
2023-03-08T04:14:02.972Z,95825.53
2023-03-08T04:16:31.147Z,95689.69
2023-03-08T04:18:59.224Z,95778.31
2023-03-08T04:21:26.004Z,95782.69
2023-03-08T04:23:53.557Z,95766.44
2023-03-08T04:26:20.476Z,95733.22
2023-03-08T04:28:47.002Z,95780.19
2023-03-08T04:31:13.445Z,95979.75
2023-03-08T04:33:40.062Z,95724.81
2023-03-08T04:36:06.863Z,95856.47
2023-03-08T04:38:33.678Z,95836.84
2023-03-08T04:41:10.315Z,95751.22
2023-03-08T04:43:36.939Z,95815.47
2023-03-08T04:46:04.178Z,95768.44
2023-03-08T04:48:30.722Z,95977.22
2023-03-08T04:50:58.860Z,95696.69
2023-03-08T04:53:25.684Z,95799.34
2023-03-08T04:55:53.489Z,95788.03
2023-03-08T04:58:19.984Z,95724.81
2023-03-08T05:00:46.578Z,95631.19
2023-03-08T05:03:13.623Z,95711.53
2023-03-08T05:05:54.303Z,95771.06
2023-03-08T05:08:21.133Z,95779.09
2023-03-08T05:10:55.368Z,95828.59
2023-03-08T05:13:21.886Z,95777.44
2023-03-08T05:15:48.533Z,95917.63
2023-03-08T05:18:15.114Z,95699.47
2023-03-08T05:20:41.667Z,95772.34
2023-03-08T05:23:08.202Z,95696.22
2023-03-08T05:25:34.766Z,95681.72
2023-03-08T05:28:01.346Z,95657.81
2023-03-08T05:30:27.988Z,95611.91
2023-03-08T05:32:54.696Z,95663.13
2023-03-08T05:35:21.268Z,95824.59
2023-03-08T05:37:47.898Z,95804.25
2023-03-08T05:40:14.539Z,95645.22
2023-03-08T05:42:41.083Z,95653.72
2023-03-08T05:45:08.295Z,95811.03
2023-03-08T05:47:34.979Z,95776.88
2023-03-08T05:50:01.510Z,95856.34
2023-03-08T05:52:29.896Z,95661.34
2023-03-08T05:54:56.392Z,95871.72
2023-03-08T05:57:22.908Z,95798.19
2023-03-08T05:59:49.505Z,95646.88
2023-03-08T06:02:16.096Z,95801.59
2023-03-08T06:04:42.749Z,95806.59
2023-03-08T06:07:09.246Z,95877.66
2023-03-08T06:09:35.783Z,95666.50
2023-03-08T06:12:02.359Z,95761.34
2023-03-08T06:14:29.131Z,95780.03
2023-03-08T06:16:55.730Z,95925.34
2023-03-08T06:19:22.379Z,95897.16
2023-03-08T06:21:48.917Z,95820.22
2023-03-08T06:24:15.492Z,95676.50
2023-03-08T06:26:42.044Z,95768.09
2023-03-08T06:29:08.548Z,95903.09
2023-03-08T06:31:35.050Z,95874.03
2023-03-08T06:34:01.606Z,95837.47
2023-03-08T06:36:28.235Z,95865.66
2023-03-08T06:38:54.819Z,95875.91
2023-03-08T06:41:21.889Z,95788.75
2023-03-08T06:43:48.746Z,95757.19
2023-03-08T06:46:17.167Z,95697.25
2023-03-08T06:48:43.964Z,95740.88
2023-03-08T06:51:10.499Z,95625.31
2023-03-08T06:53:38.237Z,95872.41
2023-03-08T06:56:06.755Z,95890.41
2023-03-08T06:58:34.335Z,95908.44
2023-03-08T07:01:01.097Z,95778.44
2023-03-08T07:03:27.937Z,95756.09
2023-03-08T07:06:01.343Z,95922.94
2023-03-08T07:08:27.984Z,95732.13
2023-03-08T07:10:54.542Z,95677.47
2023-03-08T07:13:23.575Z,95833.94
2023-03-08T07:15:51.019Z,95868.03
2023-03-08T07:18:17.837Z,95892.75
2023-03-08T07:20:44.427Z,95833.84
2023-03-08T07:23:10.946Z,95864.81
2023-03-08T07:25:40.614Z,95822.03
2023-03-08T07:28:07.168Z,95920.38
2023-03-08T07:30:33.652Z,95810.09
2023-03-08T07:33:00.285Z,95908.47
2023-03-08T07:35:26.931Z,95881.88
2023-03-08T07:37:53.468Z,95854.53
2023-03-08T07:40:20.002Z,95902.41
2023-03-08T07:42:46.512Z,95894.72
2023-03-08T07:45:13.023Z,95855.34
2023-03-08T07:47:40.607Z,95838.25
2023-03-08T07:50:08.019Z,95830.69
2023-03-08T07:52:34.526Z,95804.25
2023-03-08T07:55:02.667Z,95873.47
2023-03-08T07:57:29.243Z,95868.38
2023-03-08T07:59:55.855Z,95735.91
2023-03-08T08:02:22.425Z,95817.97
2023-03-08T08:04:49.086Z,95715.38
2023-03-08T08:07:15.927Z,95561.66
2023-03-08T08:09:42.763Z,95825.63
2023-03-08T08:12:09.330Z,95870.91
2023-03-08T08:14:35.884Z,95859.00
2023-03-08T08:17:02.409Z,95859.88
2023-03-08T08:19:29.640Z,95800.03
2023-03-08T08:21:56.144Z,95462.69
2023-03-08T08:24:22.732Z,95744.53
2023-03-08T08:26:49.310Z,95639.44
2023-03-08T08:29:15.856Z,95783.88
2023-03-08T08:31:42.437Z,95848.81
2023-03-08T08:34:09.039Z,95511.41
2023-03-08T08:36:35.624Z,95842.03
2023-03-08T08:39:02.184Z,95718.16
2023-03-08T08:41:29.853Z,95832.69
2023-03-08T08:43:58.991Z,95727.63
2023-03-08T08:46:25.950Z,95542.38
2023-03-08T08:48:52.423Z,95691.03
2023-03-08T08:51:18.934Z,95732.94
2023-03-08T08:53:45.429Z,95797.91
2023-03-08T08:56:29.068Z,95791.94
2023-03-08T08:58:56.868Z,95789.41
2023-03-08T09:01:25.286Z,95582.75
2023-03-08T09:03:52.021Z,95777.50
2023-03-08T09:06:19.892Z,95740.75
2023-03-08T09:08:50.800Z,95544.44
2023-03-08T09:11:17.462Z,95731.41
2023-03-08T09:13:44.035Z,95716.09
2023-03-08T09:16:20.390Z,95537.69
2023-03-08T09:18:47.105Z,95646.19
2023-03-08T09:21:14.274Z,95746.94
2023-03-08T09:23:41.042Z,95731.66
2023-03-08T09:26:07.609Z,95726.56
2023-03-08T09:28:34.179Z,95722.34
2023-03-08T09:31:02.761Z,95665.13
2023-03-08T09:33:29.337Z,95724.03
2023-03-08T09:35:59.310Z,95558.44
2023-03-08T09:38:25.938Z,95619.06
2023-03-08T09:41:17.221Z,95718.94
2023-03-08T09:44:11.780Z,95718.94
2023-03-08T09:46:46.217Z,95690.78
2023-03-08T09:49:14.719Z,95545.81
2023-03-08T09:51:43.051Z,95483.59
2023-03-08T09:54:16.921Z,95561.28
2023-03-08T09:56:48.266Z,95480.22
2023-03-08T09:59:19.539Z,95642.25
2023-03-08T10:02:17.381Z,95677.31
2023-03-08T10:05:30.545Z,95674.78
2023-03-08T10:08:12.555Z,95590.38
2023-03-08T10:10:51.329Z,95658.66
2023-03-08T10:13:38.043Z,95581.06
2023-03-08T10:16:20.927Z,95662.91
2023-03-08T10:18:51.525Z,95666.31
2023-03-08T10:21:20.079Z,95668.00
2023-03-08T10:23:47.756Z,95602.25
2023-03-08T10:26:14.925Z,95538.38
2023-03-08T10:28:41.510Z,95512.78
2023-03-08T10:31:23.317Z,95534.81
2023-03-08T10:33:53.087Z,95662.03
2023-03-08T10:36:21.567Z,95573.31
2023-03-08T10:39:04.564Z,95669.69
2023-03-08T10:41:32.965Z,95430.97
2023-03-08T10:43:59.800Z,95588.78
2023-03-08T10:46:28.481Z,95502.63
2023-03-08T10:48:55.077Z,95427.63
2023-03-08T10:51:23.927Z,95586.25
2023-03-08T10:54:02.832Z,95464.28
2023-03-08T10:56:39.284Z,95634.03
2023-03-08T10:59:07.162Z,95627.22
2023-03-08T11:01:35.047Z,95559.06
2023-03-08T11:04:06.580Z,95558.19
2023-03-08T11:06:35.141Z,95602.63
2023-03-08T11:09:04.522Z,95436.44
2023-03-08T11:11:40.647Z,95587.38
2023-03-08T11:14:09.714Z,95538.75
2023-03-08T11:16:58.027Z,95583.97
2023-03-08T11:19:48.147Z,95525.06
2023-03-08T11:22:33.329Z,95600.09
2023-03-08T11:25:08.919Z,95562.75
2023-03-08T11:27:53.112Z,95440.72
2023-03-08T11:30:40.921Z,95568.69
2023-03-08T11:33:24.645Z,95542.22
2023-03-08T11:35:57.085Z,95557.66
2023-03-08T11:38:30.814Z,95468.06
2023-03-08T11:41:00.285Z,95550.88
2023-03-08T11:44:07.270Z,95533.03
2023-03-08T11:46:42.796Z,95548.31
2023-03-08T11:49:28.015Z,95542.38
2023-03-08T11:51:58.314Z,95533.91
2023-03-08T11:54:30.805Z,95539.00
2023-03-08T11:56:57.946Z,95466.63
2023-03-08T11:59:33.759Z,95434.22
2023-03-08T12:02:06.258Z,95521.16
2023-03-08T12:04:38.657Z,95523.72
2023-03-08T12:07:09.472Z,95397.72
2023-03-08T12:10:08.437Z,95495.72
2023-03-08T12:12:40.946Z,95495.72
2023-03-08T12:15:25.141Z,95488.91
2023-03-08T12:18:16.170Z,95482.97
2023-03-08T12:20:43.512Z,95386.72
2023-03-08T12:23:25.288Z,95488.06
2023-03-08T12:25:56.354Z,95287.06
2023-03-08T12:28:26.931Z,95488.91
2023-03-08T12:31:26.590Z,95477.03
2023-03-08T12:33:54.927Z,95379.94
2023-03-08T12:36:24.643Z,95471.94
2023-03-08T12:38:56.545Z,95462.63
2023-03-08T12:41:27.040Z,95459.22
2023-03-08T12:44:25.930Z,95414.97
2023-03-08T12:47:03.465Z,95447.34
2023-03-08T12:49:35.728Z,95457.53
2023-03-08T12:52:07.056Z,95451.59
2023-03-08T12:54:34.647Z,95376.69
2023-03-08T12:57:02.798Z,95385.22
2023-03-08T12:59:36.066Z,95441.41
2023-03-08T13:02:21.253Z,95440.53
2023-03-08T13:04:47.773Z,95454.13
2023-03-08T13:07:52.842Z,95450.72
2023-03-08T13:10:24.451Z,95325.56
2023-03-08T13:13:27.018Z,95445.63
2023-03-08T13:16:19.950Z,95375.88
2023-03-08T13:18:48.181Z,95372.47
2023-03-08T13:21:31.156Z,95437.16
2023-03-08T13:24:12.746Z,95439.69
2023-03-08T13:27:00.617Z,95436.28
2023-03-08T13:29:31.695Z,95270.31
2023-03-08T13:31:58.204Z,95226.06
2023-03-08T13:34:29.007Z,95441.38
2023-03-08T13:36:55.854Z,95353.66
2023-03-08T13:39:24.802Z,94847.03
2023-03-08T13:41:51.507Z,95112.13
2023-03-08T13:44:21.387Z,94448.66
2023-03-08T13:46:49.226Z,95394.53
2023-03-08T13:49:16.764Z,95291.56
2023-03-08T13:51:44.096Z,95447.34
2023-03-08T13:54:23.427Z,95360.50
2023-03-08T13:56:53.345Z,95443.06
2023-03-08T13:59:20.599Z,95274.53
2023-03-08T14:01:50.851Z,95379.25
2023-03-08T14:04:27.955Z,95443.91
2023-03-08T14:06:56.116Z,95277.97
2023-03-08T14:09:22.880Z,95424.41
2023-03-08T14:11:55.937Z,95323.97
2023-03-08T14:14:36.592Z,95129.13
2023-03-08T14:17:03.305Z,95350.34
2023-03-08T14:19:31.456Z,95222.66
2023-03-08T14:21:59.746Z,95358.88
2023-03-08T14:24:33.527Z,95410.84
2023-03-08T14:27:15.664Z,95404.06
2023-03-08T14:29:43.261Z,95188.81
2023-03-08T14:32:13.231Z,95396.44
2023-03-08T14:34:40.691Z,95397.25
2023-03-08T14:37:26.455Z,95394.72
2023-03-08T14:39:54.468Z,95264.53
2023-03-08T14:42:24.733Z,95103.06
2023-03-08T14:45:22.628Z,95382.00
2023-03-08T14:47:54.084Z,95279.09
2023-03-08T14:50:23.762Z,95224.63
2023-03-08T14:52:52.384Z,95369.28
2023-03-08T14:55:23.425Z,95177.09
2023-03-08T14:58:11.310Z,95302.13
2023-03-08T15:00:47.935Z,95357.41
2023-03-08T15:03:14.606Z,95354.84
2023-03-08T15:05:41.150Z,95253.66
2023-03-08T15:08:10.325Z,95355.72
2023-03-08T15:10:37.717Z,95211.13
2023-03-08T15:13:05.160Z,95280.91
2023-03-08T15:15:31.665Z,95210.34
2023-03-08T15:17:58.180Z,95134.69
2023-03-08T15:20:25.051Z,95334.50
2023-03-08T15:22:53.997Z,95200.97
2023-03-08T15:25:31.286Z,95036.22
2023-03-08T15:27:58.052Z,95328.56
2023-03-08T15:30:26.139Z,95245.25
2023-03-08T15:32:52.756Z,95110.94
2023-03-08T15:35:19.712Z,95167.06
2023-03-08T15:37:46.345Z,95310.75
2023-03-08T15:40:18.033Z,95027.69
2023-03-08T15:42:44.537Z,95317.56
2023-03-08T15:45:11.423Z,95157.69
2023-03-08T15:47:38.111Z,95319.22
2023-03-08T15:50:05.575Z,95286.06
2023-03-08T15:52:32.626Z,95292.06
2023-03-08T15:54:59.414Z,95138.19
2023-03-08T15:57:25.967Z,95151.81
2023-03-08T15:59:52.613Z,95287.81
2023-03-08T16:02:19.665Z,95230.88
2023-03-08T16:04:47.869Z,94995.50
2023-03-08T16:07:15.826Z,95198.56
2023-03-08T16:09:42.488Z,95168.00
2023-03-08T16:12:09.178Z,95102.56
2023-03-08T16:14:36.174Z,95232.59
2023-03-08T16:17:03.862Z,95116.19
2023-03-08T16:19:34.159Z,95274.28
2023-03-08T16:22:01.066Z,95078.00
2023-03-08T16:24:28.151Z,95153.63
2023-03-08T16:26:54.830Z,94945.53
2023-03-08T16:29:22.059Z,95179.09
2023-03-08T16:31:49.102Z,95266.66
2023-03-08T16:34:16.020Z,95225.84
2023-03-08T16:36:42.523Z,95208.81
2023-03-08T16:39:09.215Z,95118.75
2023-03-08T16:41:39.663Z,95206.28
2023-03-08T16:44:06.573Z,95263.22
2023-03-08T16:46:33.125Z,95160.41
2023-03-08T16:48:59.772Z,95105.19
2023-03-08T16:51:27.582Z,94929.47
2023-03-08T16:53:54.417Z,95264.09
2023-03-08T16:56:25.047Z,95167.22
2023-03-08T16:58:51.739Z,95259.00
2023-03-08T17:01:18.812Z,95238.59
2023-03-08T17:03:45.366Z,95225.84
2023-03-08T17:06:12.834Z,95200.38
2023-03-08T17:08:39.335Z,95273.44
2023-03-08T17:11:06.242Z,95270.88
2023-03-08T17:13:33.050Z,95175.69
2023-03-08T17:15:59.585Z,95213.09
2023-03-08T17:18:26.126Z,95230.94
2023-03-08T17:20:52.891Z,95072.84
2023-03-08T17:23:19.755Z,95078.81
2023-03-08T17:25:46.505Z,95123.00
2023-03-08T17:28:13.122Z,95232.59
2023-03-08T17:30:41.292Z,95225.81
2023-03-08T17:33:09.231Z,95243.66
2023-03-08T17:35:39.675Z,95125.50
2023-03-08T17:38:06.333Z,95117.03
2023-03-08T17:40:32.872Z,95282.75
2023-03-08T17:43:02.425Z,95228.34
2023-03-08T17:45:29.287Z,95237.69
2023-03-08T17:48:01.150Z,95291.25
2023-03-08T17:50:29.849Z,95085.63
2023-03-08T17:52:56.613Z,95296.34
2023-03-08T17:55:23.377Z,95141.63
2023-03-08T17:57:49.865Z,95296.34
2023-03-08T18:00:16.684Z,95299.75
2023-03-08T18:02:43.288Z,95305.66
2023-03-08T18:05:10.971Z,95131.41
2023-03-08T18:07:39.344Z,95093.19
2023-03-08T18:10:10.893Z,95316.72
2023-03-08T18:12:37.429Z,95159.47
2023-03-08T18:15:04.400Z,95268.25
2023-03-08T18:17:30.929Z,95311.63
2023-03-08T18:19:57.436Z,95269.09
2023-03-08T18:22:23.911Z,95239.34
2023-03-08T18:24:50.416Z,95325.22
2023-03-08T18:27:16.923Z,95009.03
2023-03-08T18:29:43.797Z,95280.13
2023-03-08T18:32:10.457Z,95077.00
2023-03-08T18:34:38.399Z,95244.44
2023-03-08T18:37:05.294Z,95261.44
2023-03-08T18:39:31.843Z,95323.50
2023-03-08T18:42:00.659Z,95277.56
2023-03-08T18:44:28.269Z,95315.03
2023-03-08T18:46:54.940Z,95216.38
2023-03-08T18:49:21.676Z,95252.97
2023-03-08T18:51:48.232Z,95141.63
2023-03-08T18:54:17.374Z,95201.09
2023-03-08T18:56:44.255Z,95314.16
2023-03-08T18:59:12.092Z,95301.44
2023-03-08T19:01:38.723Z,95192.66
2023-03-08T19:04:06.916Z,95083.88
2023-03-08T19:06:34.400Z,95118.69
2023-03-08T19:09:02.104Z,95162.81
2023-03-08T19:11:28.776Z,95224.03
2023-03-08T19:13:55.366Z,95315.84
2023-03-08T19:16:26.034Z,95297.97
2023-03-08T19:18:54.505Z,95269.91
2023-03-08T19:21:28.168Z,95330.31
2023-03-08T19:23:54.818Z,95173.88
2023-03-08T19:26:38.684Z,95256.34
2023-03-08T19:29:19.478Z,95293.72
2023-03-08T19:31:53.128Z,95071.06
2023-03-08T19:34:20.939Z,95238.47
2023-03-08T19:36:47.743Z,95260.59
2023-03-08T19:39:19.999Z,95277.56
2023-03-08T19:41:55.199Z,95176.38
2023-03-08T19:44:21.820Z,95347.28
2023-03-08T19:46:48.453Z,95201.84
2023-03-08T19:49:17.265Z,94974.16
2023-03-08T19:51:44.373Z,95364.25
2023-03-08T19:54:11.870Z,95311.53
2023-03-08T19:56:38.436Z,95360.88
2023-03-08T19:59:05.058Z,95212.81
2023-03-08T20:01:31.920Z,95269.00
2023-03-08T20:03:58.700Z,95032.69
2023-03-08T20:06:27.441Z,95337.94
2023-03-08T20:08:55.607Z,95350.69
2023-03-08T20:11:22.329Z,95336.22
2023-03-08T20:13:49.016Z,95332.84
2023-03-08T20:16:16.068Z,95337.94
2023-03-08T20:18:42.825Z,95337.94
2023-03-08T20:21:30.042Z,95349.81
2023-03-08T20:23:57.549Z,95349.81
2023-03-08T20:26:30.656Z,95341.31
2023-03-08T20:28:57.615Z,95031.16
2023-03-08T20:31:26.272Z,95344.72
2023-03-08T20:33:52.869Z,95334.53
2023-03-08T20:36:19.620Z,95328.59
2023-03-08T20:38:46.292Z,95326.03
2023-03-08T20:41:15.871Z,94048.06
2023-03-08T20:43:43.491Z,95328.59
2023-03-08T20:46:11.707Z,95321.81
2023-03-08T20:48:39.812Z,95325.22
2023-03-08T20:51:07.469Z,95326.91
2023-03-08T20:53:34.746Z,95329.47
2023-03-08T20:56:11.478Z,95039.44
2023-03-08T20:58:38.139Z,95325.22
2023-03-08T21:01:14.755Z,95329.47
2023-03-08T21:03:41.490Z,95142.31
2023-03-08T21:06:16.031Z,95325.22
2023-03-08T21:08:42.700Z,95322.69
2023-03-08T21:11:09.364Z,95329.47
2023-03-08T21:13:38.761Z,95320.13
2023-03-08T21:16:07.500Z,95204.47
2023-03-08T21:18:45.760Z,95310.78
2023-03-08T21:21:27.295Z,95306.53
2023-03-08T21:24:00.510Z,93733.47
2023-03-08T21:26:27.731Z,95025.28
2023-03-08T21:28:56.325Z,95295.50
2023-03-08T21:31:23.594Z,95292.94
2023-03-08T21:33:50.342Z,95293.81
2023-03-08T21:36:17.242Z,94450.56
2023-03-08T21:38:43.838Z,95273.44
2023-03-08T21:41:20.782Z,95156.19
2023-03-08T21:43:50.176Z,95271.75
2023-03-08T21:46:16.980Z,95117.91
2023-03-08T21:48:43.744Z,95269.22
2023-03-08T21:51:10.334Z,95259.84
2023-03-08T21:53:41.998Z,95267.47
2023-03-08T21:56:12.894Z,95263.25
2023-03-08T21:58:42.277Z,94960.06
2023-03-08T22:01:29.433Z,95244.56
2023-03-08T22:03:57.514Z,95253.94
2023-03-08T22:06:24.271Z,94920.91
2023-03-08T22:08:50.987Z,95254.75
2023-03-08T22:11:18.146Z,95259.84
2023-03-08T22:13:49.060Z,95256.47
2023-03-08T22:16:15.679Z,95141.75
2023-03-08T22:18:42.323Z,94532.72
2023-03-08T22:21:08.976Z,94231.63
2023-03-08T22:23:35.655Z,95270.03
2023-03-08T22:26:02.281Z,94747.97
2023-03-08T22:28:29.046Z,95138.28
2023-03-08T22:30:55.754Z,93624.41
2023-03-08T22:33:22.394Z,93774.47
2023-03-08T22:35:49.156Z,95222.41
2023-03-08T22:38:18.239Z,94797.84
2023-03-08T22:40:44.974Z,93907.16
2023-03-08T22:43:11.651Z,94372.78
2023-03-08T22:45:38.364Z,95067.72
2023-03-08T22:48:06.957Z,95271.75
2023-03-08T22:50:33.627Z,95270.03
2023-03-08T22:53:00.194Z,95278.53
2023-03-08T22:55:26.868Z,95154.47
2023-03-08T22:57:53.514Z,94349.97
2023-03-08T23:00:20.598Z,95294.66
2023-03-08T23:02:49.927Z,95136.56
2023-03-08T23:05:18.451Z,95065.13
2023-03-08T23:07:44.992Z,95146.84
2023-03-08T23:10:12.110Z,95157.75
2023-03-08T23:12:38.900Z,95188.44
2023-03-08T23:15:06.324Z,95250.41
2023-03-08T23:17:35.249Z,95065.22
2023-03-08T23:20:06.783Z,95277.66
2023-03-08T23:22:33.312Z,95319.25
2023-03-08T23:24:59.941Z,95277.66
2023-03-08T23:27:29.008Z,95273.44
2023-03-08T23:29:55.631Z,95280.22
2023-03-08T23:32:22.170Z,95283.63
2023-03-08T23:34:48.755Z,95287.03
2023-03-08T23:37:15.453Z,95288.72
2023-03-08T23:39:43.428Z,95276.84
2023-03-08T23:42:10.040Z,95285.31
2023-03-08T23:44:37.776Z,95294.66
2023-03-08T23:47:04.474Z,95286.16
2023-03-08T23:49:31.058Z,95285.28
2023-03-08T23:51:57.597Z,95286.16
2023-03-08T23:54:24.276Z,95278.53
2023-03-08T23:56:50.836Z,95275.97
2023-03-08T23:59:19.689Z,95271.75
